sensor_id;sensor_type;location;lat;lon;timestamp;P1;durP1;ratioP1;P2;durP2;ratioP2
2888;SDS011;1453;42.708;23.282;2023-02-24T00:01:36;15.48;;;10.00;;
2888;SDS011;1453;42.708;23.282;2023-02-24T00:04:07;13.68;;;9.20;;
2888;SDS011;1453;42.708;23.282;2023-02-24T00:06:38;15.32;;;8.40;;
2888;SDS011;1453;42.708;23.282;2023-02-24T00:09:12;14.63;;;8.85;;
2888;SDS011;1453;42.708;23.282;2023-02-24T00:11:46;16.63;;;9.80;;
2888;SDS011;1453;42.708;23.282;2023-02-24T00:14:35;17.30;;;9.88;;
2888;SDS011;1453;42.708;23.282;2023-02-24T00:17:04;15.27;;;10.85;;
2888;SDS011;1453;42.708;23.282;2023-02-24T00:19:34;16.45;;;9.98;;
2888;SDS011;1453;42.708;23.282;2023-02-24T00:22:02;14.38;;;8.70;;
2888;SDS011;1453;42.708;23.282;2023-02-24T00:24:31;19.83;;;11.65;;
2888;SDS011;1453;42.708;23.282;2023-02-24T00:26:58;27.77;;;11.23;;
2888;SDS011;1453;42.708;23.282;2023-02-24T00:29:27;17.30;;;10.38;;
2888;SDS011;1453;42.708;23.282;2023-02-24T00:31:54;18.23;;;10.40;;
2888;SDS011;1453;42.708;23.282;2023-02-24T00:34:25;16.73;;;9.10;;
2888;SDS011;1453;42.708;23.282;2023-02-24T00:36:55;17.95;;;10.80;;
2888;SDS011;1453;42.708;23.282;2023-02-24T00:39:24;19.98;;;11.23;;
2888;SDS011;1453;42.708;23.282;2023-02-24T00:41:56;21.73;;;11.70;;
2888;SDS011;1453;42.708;23.282;2023-02-24T00:44:28;16.25;;;10.38;;
2888;SDS011;1453;42.708;23.282;2023-02-24T00:47:06;19.33;;;11.43;;
2888;SDS011;1453;42.708;23.282;2023-02-24T00:49:35;19.85;;;12.38;;
2888;SDS011;1453;42.708;23.282;2023-02-24T00:52:06;15.23;;;9.27;;
2888;SDS011;1453;42.708;23.282;2023-02-24T00:54:37;17.23;;;11.38;;
2888;SDS011;1453;42.708;23.282;2023-02-24T00:57:04;17.27;;;10.98;;
2888;SDS011;1453;42.708;23.282;2023-02-24T00:59:32;18.58;;;11.65;;
2888;SDS011;1453;42.708;23.282;2023-02-24T01:01:59;16.15;;;11.85;;
2888;SDS011;1453;42.708;23.282;2023-02-24T01:04:27;16.58;;;9.77;;
2888;SDS011;1453;42.708;23.282;2023-02-24T01:06:53;15.77;;;11.02;;
2888;SDS011;1453;42.708;23.282;2023-02-24T01:09:24;14.07;;;10.20;;
2888;SDS011;1453;42.708;23.282;2023-02-24T01:11:52;12.88;;;9.07;;
2888;SDS011;1453;42.708;23.282;2023-02-24T01:14:37;15.20;;;9.85;;
2888;SDS011;1453;42.708;23.282;2023-02-24T01:17:04;11.75;;;8.57;;
2888;SDS011;1453;42.708;23.282;2023-02-24T01:19:33;15.93;;;8.95;;
2888;SDS011;1453;42.708;23.282;2023-02-24T01:22:00;16.65;;;9.10;;
2888;SDS011;1453;42.708;23.282;2023-02-24T01:24:30;14.50;;;10.02;;
2888;SDS011;1453;42.708;23.282;2023-02-24T01:27:00;16.85;;;10.20;;
2888;SDS011;1453;42.708;23.282;2023-02-24T01:29:26;16.70;;;9.68;;
2888;SDS011;1453;42.708;23.282;2023-02-24T01:31:52;13.03;;;9.03;;
2888;SDS011;1453;42.708;23.282;2023-02-24T01:34:21;13.55;;;8.98;;
2888;SDS011;1453;42.708;23.282;2023-02-24T01:36:48;14.98;;;10.77;;
2888;SDS011;1453;42.708;23.282;2023-02-24T01:39:14;15.83;;;8.57;;
2888;SDS011;1453;42.708;23.282;2023-02-24T01:41:41;11.90;;;8.47;;
2888;SDS011;1453;42.708;23.282;2023-02-24T01:46:42;13.30;;;9.38;;
2888;SDS011;1453;42.708;23.282;2023-02-24T01:49:12;13.50;;;8.98;;
2888;SDS011;1453;42.708;23.282;2023-02-24T01:51:45;20.20;;;11.05;;
2888;SDS011;1453;42.708;23.282;2023-02-24T01:54:15;14.20;;;9.05;;
2888;SDS011;1453;42.708;23.282;2023-02-24T01:56:45;12.50;;;8.30;;
2888;SDS011;1453;42.708;23.282;2023-02-24T01:59:14;11.15;;;8.15;;
2888;SDS011;1453;42.708;23.282;2023-02-24T02:01:42;14.57;;;9.35;;
2888;SDS011;1453;42.708;23.282;2023-02-24T02:06:50;14.40;;;9.77;;
2888;SDS011;1453;42.708;23.282;2023-02-24T02:09:17;15.05;;;9.30;;
2888;SDS011;1453;42.708;23.282;2023-02-24T02:11:44;14.73;;;8.63;;
2888;SDS011;1453;42.708;23.282;2023-02-24T02:14:14;15.27;;;9.07;;
2888;SDS011;1453;42.708;23.282;2023-02-24T02:36:20;13.05;;;8.68;;
2888;SDS011;1453;42.708;23.282;2023-02-24T02:47:52;12.85;;;8.13;;
2888;SDS011;1453;42.708;23.282;2023-02-24T02:50:26;10.45;;;7.72;;
2888;SDS011;1453;42.708;23.282;2023-02-24T02:53:13;13.50;;;8.52;;
2888;SDS011;1453;42.708;23.282;2023-02-24T02:55:51;12.68;;;7.78;;
2888;SDS011;1453;42.708;23.282;2023-02-24T02:58:52;12.85;;;7.50;;
2888;SDS011;1453;42.708;23.282;2023-02-24T03:01:21;14.55;;;8.48;;
2888;SDS011;1453;42.708;23.282;2023-02-24T03:03:53;12.82;;;7.85;;
2888;SDS011;1453;42.708;23.282;2023-02-24T03:06:26;12.15;;;7.32;;
2888;SDS011;1453;42.708;23.282;2023-02-24T03:09:09;12.25;;;6.72;;
2888;SDS011;1453;42.708;23.282;2023-02-24T03:11:42;12.48;;;8.43;;
2888;SDS011;1453;42.708;23.282;2023-02-24T03:14:17;9.20;;;7.30;;
2888;SDS011;1453;42.708;23.282;2023-02-24T03:16:48;14.95;;;9.85;;
2888;SDS011;1453;42.708;23.282;2023-02-24T03:19:17;11.75;;;8.13;;
2888;SDS011;1453;42.708;23.282;2023-02-24T03:22:01;11.30;;;7.75;;
2888;SDS011;1453;42.708;23.282;2023-02-24T03:24:41;11.82;;;8.10;;
2888;SDS011;1453;42.708;23.282;2023-02-24T03:30:05;17.60;;;8.98;;
2888;SDS011;1453;42.708;23.282;2023-02-24T03:32:48;12.15;;;7.68;;
2888;SDS011;1453;42.708;23.282;2023-02-24T03:35:35;9.82;;;5.90;;
2888;SDS011;1453;42.708;23.282;2023-02-24T03:38:05;12.05;;;7.63;;
2888;SDS011;1453;42.708;23.282;2023-02-24T03:40:35;12.18;;;7.68;;
2888;SDS011;1453;42.708;23.282;2023-02-24T03:43:04;11.35;;;7.25;;
2888;SDS011;1453;42.708;23.282;2023-02-24T03:45:50;11.23;;;7.55;;
2888;SDS011;1453;42.708;23.282;2023-02-24T03:48:17;9.55;;;7.03;;
2888;SDS011;1453;42.708;23.282;2023-02-24T03:50:43;12.45;;;7.78;;
2888;SDS011;1453;42.708;23.282;2023-02-24T03:56:12;13.10;;;7.88;;
2888;SDS011;1453;42.708;23.282;2023-02-24T04:05:06;10.38;;;7.07;;
2888;SDS011;1453;42.708;23.282;2023-02-24T04:07:24;10.60;;;6.65;;
2888;SDS011;1453;42.708;23.282;2023-02-24T04:09:59;10.75;;;6.50;;
2888;SDS011;1453;42.708;23.282;2023-02-24T04:12:29;11.18;;;7.50;;
2888;SDS011;1453;42.708;23.282;2023-02-24T04:17:57;10.15;;;6.75;;
2888;SDS011;1453;42.708;23.282;2023-02-24T04:20:30;10.85;;;6.78;;
2888;SDS011;1453;42.708;23.282;2023-02-24T04:22:59;10.43;;;6.70;;
2888;SDS011;1453;42.708;23.282;2023-02-24T04:25:32;9.32;;;6.20;;
2888;SDS011;1453;42.708;23.282;2023-02-24T04:27:59;11.55;;;7.18;;
2888;SDS011;1453;42.708;23.282;2023-02-24T04:30:28;9.93;;;6.30;;
2888;SDS011;1453;42.708;23.282;2023-02-24T04:32:59;14.30;;;8.57;;
2888;SDS011;1453;42.708;23.282;2023-02-24T04:35:25;11.27;;;7.43;;
2888;SDS011;1453;42.708;23.282;2023-02-24T04:37:52;15.73;;;8.57;;
2888;SDS011;1453;42.708;23.282;2023-02-24T04:40:19;10.65;;;7.00;;
2888;SDS011;1453;42.708;23.282;2023-02-24T04:42:46;9.20;;;6.55;;
2888;SDS011;1453;42.708;23.282;2023-02-24T04:45:27;12.43;;;6.55;;
2888;SDS011;1453;42.708;23.282;2023-02-24T04:47:56;11.50;;;6.60;;
2888;SDS011;1453;42.708;23.282;2023-02-24T04:50:29;16.02;;;6.75;;
2888;SDS011;1453;42.708;23.282;2023-02-24T04:53:00;12.35;;;7.85;;
2888;SDS011;1453;42.708;23.282;2023-02-24T04:55:34;11.40;;;6.13;;
2888;SDS011;1453;42.708;23.282;2023-02-24T04:58:10;11.77;;;7.90;;
2888;SDS011;1453;42.708;23.282;2023-02-24T05:00:43;12.00;;;6.93;;
2888;SDS011;1453;42.708;23.282;2023-02-24T05:03:17;14.35;;;6.10;;
2888;SDS011;1453;42.708;23.282;2023-02-24T05:05:51;11.57;;;6.63;;
2888;SDS011;1453;42.708;23.282;2023-02-24T05:08:24;10.90;;;6.60;;
2888;SDS011;1453;42.708;23.282;2023-02-24T05:10:52;9.35;;;6.75;;
2888;SDS011;1453;42.708;23.282;2023-02-24T05:13:24;10.50;;;6.63;;
2888;SDS011;1453;42.708;23.282;2023-02-24T05:16:02;11.40;;;6.90;;
2888;SDS011;1453;42.708;23.282;2023-02-24T05:18:32;15.48;;;7.35;;
2888;SDS011;1453;42.708;23.282;2023-02-24T05:21:03;10.23;;;6.40;;
2888;SDS011;1453;42.708;23.282;2023-02-24T05:23:54;14.20;;;7.88;;
2888;SDS011;1453;42.708;23.282;2023-02-24T05:26:23;14.82;;;7.68;;
2888;SDS011;1453;42.708;23.282;2023-02-24T05:28:50;17.00;;;8.57;;
2888;SDS011;1453;42.708;23.282;2023-02-24T05:31:24;11.50;;;7.10;;
2888;SDS011;1453;42.708;23.282;2023-02-24T05:33:53;10.30;;;7.10;;
2888;SDS011;1453;42.708;23.282;2023-02-24T05:36:36;10.90;;;6.20;;
2888;SDS011;1453;42.708;23.282;2023-02-24T05:39:04;10.30;;;6.85;;
2888;SDS011;1453;42.708;23.282;2023-02-24T05:41:32;11.75;;;7.10;;
2888;SDS011;1453;42.708;23.282;2023-02-24T05:44:01;11.30;;;6.90;;
2888;SDS011;1453;42.708;23.282;2023-02-24T05:46:33;13.75;;;6.70;;
2888;SDS011;1453;42.708;23.282;2023-02-24T05:49:03;12.00;;;6.82;;
2888;SDS011;1453;42.708;23.282;2023-02-24T05:51:56;10.15;;;6.68;;
2888;SDS011;1453;42.708;23.282;2023-02-24T05:56:55;12.38;;;6.93;;
2888;SDS011;1453;42.708;23.282;2023-02-24T05:59:57;9.57;;;6.70;;
2888;SDS011;1453;42.708;23.282;2023-02-24T06:02:22;9.23;;;6.10;;
2888;SDS011;1453;42.708;23.282;2023-02-24T06:04:51;12.43;;;6.55;;
2888;SDS011;1453;42.708;23.282;2023-02-24T06:07:22;12.02;;;6.50;;
2888;SDS011;1453;42.708;23.282;2023-02-24T06:09:52;10.68;;;6.53;;
2888;SDS011;1453;42.708;23.282;2023-02-24T06:12:32;9.23;;;6.32;;
2888;SDS011;1453;42.708;23.282;2023-02-24T06:15:00;12.45;;;6.93;;
2888;SDS011;1453;42.708;23.282;2023-02-24T06:17:31;11.10;;;7.13;;
2888;SDS011;1453;42.708;23.282;2023-02-24T06:19:57;15.70;;;7.70;;
2888;SDS011;1453;42.708;23.282;2023-02-24T06:22:24;13.27;;;7.30;;
2888;SDS011;1453;42.708;23.282;2023-02-24T06:24:52;12.85;;;7.65;;
2888;SDS011;1453;42.708;23.282;2023-02-24T06:27:19;11.65;;;6.25;;
2888;SDS011;1453;42.708;23.282;2023-02-24T06:29:46;12.38;;;7.20;;
2888;SDS011;1453;42.708;23.282;2023-02-24T06:32:18;9.05;;;6.63;;
2888;SDS011;1453;42.708;23.282;2023-02-24T06:34:47;14.52;;;6.68;;
2888;SDS011;1453;42.708;23.282;2023-02-24T06:37:14;12.70;;;6.32;;
2888;SDS011;1453;42.708;23.282;2023-02-24T06:39:40;12.40;;;6.32;;
2888;SDS011;1453;42.708;23.282;2023-02-24T06:42:07;11.52;;;6.55;;
2888;SDS011;1453;42.708;23.282;2023-02-24T06:44:38;13.98;;;8.10;;
2888;SDS011;1453;42.708;23.282;2023-02-24T06:47:06;10.00;;;6.30;;
2888;SDS011;1453;42.708;23.282;2023-02-24T06:49:37;13.65;;;6.53;;
2888;SDS011;1453;42.708;23.282;2023-02-24T06:52:02;9.93;;;6.27;;
2888;SDS011;1453;42.708;23.282;2023-02-24T06:54:29;15.70;;;7.13;;
2888;SDS011;1453;42.708;23.282;2023-02-24T06:56:57;10.13;;;6.27;;
2888;SDS011;1453;42.708;23.282;2023-02-24T06:59:24;12.77;;;7.22;;
2888;SDS011;1453;42.708;23.282;2023-02-24T07:01:55;11.95;;;6.93;;
2888;SDS011;1453;42.708;23.282;2023-02-24T07:04:25;12.15;;;7.63;;
2888;SDS011;1453;42.708;23.282;2023-02-24T07:06:56;12.55;;;7.55;;
2888;SDS011;1453;42.708;23.282;2023-02-24T07:09:27;13.68;;;8.00;;
2888;SDS011;1453;42.708;23.282;2023-02-24T07:11:54;10.32;;;6.95;;
2888;SDS011;1453;42.708;23.282;2023-02-24T07:14:24;18.08;;;7.65;;
2888;SDS011;1453;42.708;23.282;2023-02-24T07:16:55;12.02;;;7.45;;
2888;SDS011;1453;42.708;23.282;2023-02-24T07:19:23;14.18;;;8.60;;
2888;SDS011;1453;42.708;23.282;2023-02-24T07:21:54;14.18;;;7.43;;
2888;SDS011;1453;42.708;23.282;2023-02-24T07:24:26;12.70;;;7.82;;
2888;SDS011;1453;42.708;23.282;2023-02-24T07:27:13;11.27;;;6.93;;
2888;SDS011;1453;42.708;23.282;2023-02-24T07:29:51;10.38;;;6.38;;
2888;SDS011;1453;42.708;23.282;2023-02-24T07:32:17;18.05;;;6.80;;
2888;SDS011;1453;42.708;23.282;2023-02-24T07:34:46;14.00;;;8.00;;
2888;SDS011;1453;42.708;23.282;2023-02-24T07:37:12;13.98;;;8.50;;
2888;SDS011;1453;42.708;23.282;2023-02-24T07:39:39;13.38;;;7.90;;
2888;SDS011;1453;42.708;23.282;2023-02-24T07:42:07;12.70;;;7.70;;
2888;SDS011;1453;42.708;23.282;2023-02-24T07:44:37;11.70;;;6.80;;
2888;SDS011;1453;42.708;23.282;2023-02-24T07:47:03;13.83;;;8.40;;
2888;SDS011;1453;42.708;23.282;2023-02-24T07:49:32;12.85;;;7.22;;
2888;SDS011;1453;42.708;23.282;2023-02-24T07:51:58;11.23;;;7.32;;
2888;SDS011;1453;42.708;23.282;2023-02-24T07:54:24;12.20;;;6.83;;
2888;SDS011;1453;42.708;23.282;2023-02-24T07:56:54;11.02;;;7.13;;
2888;SDS011;1453;42.708;23.282;2023-02-24T07:59:26;14.07;;;8.10;;
2888;SDS011;1453;42.708;23.282;2023-02-24T08:02:01;16.25;;;7.93;;
2888;SDS011;1453;42.708;23.282;2023-02-24T08:04:31;13.25;;;7.38;;
2888;SDS011;1453;42.708;23.282;2023-02-24T08:06:57;16.55;;;7.18;;
2888;SDS011;1453;42.708;23.282;2023-02-24T08:09:27;13.60;;;7.57;;
2888;SDS011;1453;42.708;23.282;2023-02-24T08:12:09;14.88;;;8.23;;
2888;SDS011;1453;42.708;23.282;2023-02-24T08:14:46;13.15;;;7.50;;
2888;SDS011;1453;42.708;23.282;2023-02-24T08:17:18;13.07;;;7.85;;
2888;SDS011;1453;42.708;23.282;2023-02-24T08:19:51;17.20;;;8.35;;
2888;SDS011;1453;42.708;23.282;2023-02-24T08:22:39;13.07;;;7.90;;
2888;SDS011;1453;42.708;23.282;2023-02-24T08:25:11;19.00;;;7.93;;
2888;SDS011;1453;42.708;23.282;2023-02-24T08:27:47;14.05;;;8.57;;
2888;SDS011;1453;42.708;23.282;2023-02-24T08:30:24;13.57;;;8.20;;
2888;SDS011;1453;42.708;23.282;2023-02-24T08:32:53;15.48;;;8.00;;
2888;SDS011;1453;42.708;23.282;2023-02-24T08:35:26;14.68;;;7.93;;
2888;SDS011;1453;42.708;23.282;2023-02-24T08:38:09;19.98;;;12.45;;
2888;SDS011;1453;42.708;23.282;2023-02-24T08:40:45;14.32;;;8.13;;
2888;SDS011;1453;42.708;23.282;2023-02-24T08:43:19;16.00;;;8.70;;
2888;SDS011;1453;42.708;23.282;2023-02-24T08:45:59;13.10;;;8.90;;
2888;SDS011;1453;42.708;23.282;2023-02-24T08:51:17;15.87;;;8.87;;
2888;SDS011;1453;42.708;23.282;2023-02-24T08:53:53;11.57;;;7.60;;
2888;SDS011;1453;42.708;23.282;2023-02-24T08:56:28;18.83;;;9.70;;
2888;SDS011;1453;42.708;23.282;2023-02-24T08:58:59;13.10;;;8.97;;
2888;SDS011;1453;42.708;23.282;2023-02-24T09:01:35;14.47;;;9.07;;
2888;SDS011;1453;42.708;23.282;2023-02-24T09:04:05;10.43;;;8.10;;
2888;SDS011;1453;42.708;23.282;2023-02-24T09:09:11;12.90;;;8.33;;
2888;SDS011;1453;42.708;23.282;2023-02-24T09:14:16;17.23;;;9.27;;
2888;SDS011;1453;42.708;23.282;2023-02-24T09:16:48;14.23;;;8.70;;
2888;SDS011;1453;42.708;23.282;2023-02-24T09:22:27;13.17;;;9.03;;
2888;SDS011;1453;42.708;23.282;2023-02-24T09:24:57;16.67;;;8.27;;
2888;SDS011;1453;42.708;23.282;2023-02-24T09:30:32;13.93;;;8.30;;
2888;SDS011;1453;42.708;23.282;2023-02-24T09:33:11;13.73;;;8.57;;
2888;SDS011;1453;42.708;23.282;2023-02-24T09:36:26;14.90;;;9.40;;
2888;SDS011;1453;42.708;23.282;2023-02-24T09:44:02;18.83;;;9.87;;
2888;SDS011;1453;42.708;23.282;2023-02-24T09:46:33;13.80;;;9.30;;
2888;SDS011;1453;42.708;23.282;2023-02-24T09:49:16;17.10;;;10.43;;
2888;SDS011;1453;42.708;23.282;2023-02-24T09:51:43;21.60;;;10.33;;
2888;SDS011;1453;42.708;23.282;2023-02-24T09:54:16;19.90;;;10.73;;
2888;SDS011;1453;42.708;23.282;2023-02-24T09:56:59;17.53;;;9.80;;
2888;SDS011;1453;42.708;23.282;2023-02-24T10:02:45;17.07;;;10.70;;
2888;SDS011;1453;42.708;23.282;2023-02-24T10:05:30;18.60;;;10.17;;
2888;SDS011;1453;42.708;23.282;2023-02-24T10:08:18;17.27;;;8.93;;
2888;SDS011;1453;42.708;23.282;2023-02-24T10:10:55;15.33;;;10.10;;
2888;SDS011;1453;42.708;23.282;2023-02-24T10:13:42;17.53;;;10.03;;
2888;SDS011;1453;42.708;23.282;2023-02-24T10:16:18;17.20;;;10.27;;
2888;SDS011;1453;42.708;23.282;2023-02-24T10:18:50;20.73;;;11.07;;
2888;SDS011;1453;42.708;23.282;2023-02-24T10:25:53;21.80;;;9.80;;
2888;SDS011;1453;42.708;23.282;2023-02-24T10:31:40;17.40;;;9.97;;
2888;SDS011;1453;42.708;23.282;2023-02-24T10:34:15;15.77;;;9.77;;
2888;SDS011;1453;42.708;23.282;2023-02-24T10:36:44;17.87;;;10.17;;
2888;SDS011;1453;42.708;23.282;2023-02-24T10:39:21;20.60;;;10.17;;
2888;SDS011;1453;42.708;23.282;2023-02-24T10:41:59;21.27;;;10.70;;
2888;SDS011;1453;42.708;23.282;2023-02-24T10:44:47;18.63;;;10.27;;
2888;SDS011;1453;42.708;23.282;2023-02-24T10:47:27;16.37;;;10.53;;
2888;SDS011;1453;42.708;23.282;2023-02-24T10:49:59;17.87;;;10.90;;
2888;SDS011;1453;42.708;23.282;2023-02-24T10:52:35;15.33;;;9.40;;
2888;SDS011;1453;42.708;23.282;2023-02-24T10:55:22;21.03;;;11.70;;
2888;SDS011;1453;42.708;23.282;2023-02-24T10:58:15;18.90;;;10.60;;
2888;SDS011;1453;42.708;23.282;2023-02-24T11:01:16;16.40;;;10.53;;
2888;SDS011;1453;42.708;23.282;2023-02-24T11:04:18;17.33;;;9.87;;
2888;SDS011;1453;42.708;23.282;2023-02-24T11:07:15;21.87;;;11.30;;
2888;SDS011;1453;42.708;23.282;2023-02-24T11:10:04;18.60;;;12.10;;
2888;SDS011;1453;42.708;23.282;2023-02-24T11:12:47;17.13;;;11.40;;
2888;SDS011;1453;42.708;23.282;2023-02-24T11:15:35;17.70;;;12.67;;
2888;SDS011;1453;42.708;23.282;2023-02-24T11:18:29;21.50;;;11.50;;
2888;SDS011;1453;42.708;23.282;2023-02-24T11:23:34;16.33;;;12.90;;
2888;SDS011;1453;42.708;23.282;2023-02-24T11:26:25;17.03;;;10.60;;
2888;SDS011;1453;42.708;23.282;2023-02-24T11:29:05;18.43;;;11.20;;
2888;SDS011;1453;42.708;23.282;2023-02-24T11:34:55;22.70;;;12.90;;
2888;SDS011;1453;42.708;23.282;2023-02-24T11:37:54;19.80;;;12.40;;
2888;SDS011;1453;42.708;23.282;2023-02-24T11:40:54;19.90;;;12.80;;
2888;SDS011;1453;42.708;23.282;2023-02-24T11:43:39;26.47;;;15.70;;
2888;SDS011;1453;42.708;23.282;2023-02-24T11:46:11;25.60;;;14.43;;
2888;SDS011;1453;42.708;23.282;2023-02-24T11:48:49;16.80;;;11.90;;
2888;SDS011;1453;42.708;23.282;2023-02-24T11:51:33;21.70;;;12.43;;
2888;SDS011;1453;42.708;23.282;2023-02-24T11:54:08;16.90;;;12.50;;
2888;SDS011;1453;42.708;23.282;2023-02-24T11:59:19;19.93;;;12.30;;
2888;SDS011;1453;42.708;23.282;2023-02-24T12:07:41;17.73;;;12.90;;
2888;SDS011;1453;42.708;23.282;2023-02-24T12:15:41;17.97;;;12.67;;
2888;SDS011;1453;42.708;23.282;2023-02-24T12:18:40;15.97;;;11.07;;
2888;SDS011;1453;42.708;23.282;2023-02-24T12:23:47;19.33;;;13.37;;
2888;SDS011;1453;42.708;23.282;2023-02-24T12:35:14;20.07;;;12.47;;
2888;SDS011;1453;42.708;23.282;2023-02-24T12:40:39;21.37;;;13.93;;
2888;SDS011;1453;42.708;23.282;2023-02-24T12:46:32;22.27;;;14.43;;
2888;SDS011;1453;42.708;23.282;2023-02-24T12:49:25;20.67;;;13.57;;
2888;SDS011;1453;42.708;23.282;2023-02-24T12:52:16;25.23;;;14.00;;
2888;SDS011;1453;42.708;23.282;2023-02-24T12:57:41;22.20;;;13.60;;
2888;SDS011;1453;42.708;23.282;2023-02-24T13:06:29;22.70;;;13.83;;
2888;SDS011;1453;42.708;23.282;2023-02-24T13:12:33;19.70;;;12.77;;
2888;SDS011;1453;42.708;23.282;2023-02-24T13:15:21;25.87;;;14.97;;
2888;SDS011;1453;42.708;23.282;2023-02-24T13:17:51;23.60;;;14.53;;
2888;SDS011;1453;42.708;23.282;2023-02-24T13:22:51;23.20;;;14.23;;
2888;SDS011;1453;42.708;23.282;2023-02-24T13:25:18;21.30;;;14.23;;
2888;SDS011;1453;42.708;23.282;2023-02-24T13:28:03;22.37;;;15.90;;
2888;SDS011;1453;42.708;23.282;2023-02-24T13:30:56;23.10;;;14.30;;
2888;SDS011;1453;42.708;23.282;2023-02-24T13:33:29;16.90;;;13.60;;
2888;SDS011;1453;42.708;23.282;2023-02-24T13:36:13;23.70;;;15.60;;
2888;SDS011;1453;42.708;23.282;2023-02-24T13:38:50;24.17;;;15.17;;
2888;SDS011;1453;42.708;23.282;2023-02-24T13:49:29;25.70;;;15.60;;
2888;SDS011;1453;42.708;23.282;2023-02-24T14:03:42;24.13;;;16.13;;
2888;SDS011;1453;42.708;23.282;2023-02-24T14:06:16;29.70;;;17.37;;
2888;SDS011;1453;42.708;23.282;2023-02-24T14:08:53;27.80;;;18.50;;
2888;SDS011;1453;42.708;23.282;2023-02-24T14:11:22;25.00;;;16.70;;
2888;SDS011;1453;42.708;23.282;2023-02-24T14:13:53;25.60;;;16.97;;
2888;SDS011;1453;42.708;23.282;2023-02-24T14:16:22;29.67;;;18.30;;
2888;SDS011;1453;42.708;23.282;2023-02-24T14:18:55;28.73;;;17.43;;
2888;SDS011;1453;42.708;23.282;2023-02-24T14:21:27;30.87;;;17.60;;
2888;SDS011;1453;42.708;23.282;2023-02-24T14:24:00;26.77;;;16.53;;
2888;SDS011;1453;42.708;23.282;2023-02-24T14:26:41;22.30;;;15.20;;
2888;SDS011;1453;42.708;23.282;2023-02-24T14:29:15;24.23;;;16.03;;
2888;SDS011;1453;42.708;23.282;2023-02-24T14:31:59;26.80;;;18.50;;
2888;SDS011;1453;42.708;23.282;2023-02-24T14:34:26;29.47;;;19.27;;
2888;SDS011;1453;42.708;23.282;2023-02-24T14:36:56;27.93;;;17.40;;
2888;SDS011;1453;42.708;23.282;2023-02-24T14:39:25;26.83;;;18.27;;
2888;SDS011;1453;42.708;23.282;2023-02-24T14:42:12;27.73;;;18.40;;
2888;SDS011;1453;42.708;23.282;2023-02-24T14:44:49;47.57;;;29.03;;
2888;SDS011;1453;42.708;23.282;2023-02-24T14:47:19;27.93;;;18.27;;
2888;SDS011;1453;42.708;23.282;2023-02-24T14:49:58;26.83;;;19.03;;
2888;SDS011;1453;42.708;23.282;2023-02-24T14:52:29;24.30;;;16.20;;
2888;SDS011;1453;42.708;23.282;2023-02-24T14:57:41;34.67;;;18.87;;
2888;SDS011;1453;42.708;23.282;2023-02-24T15:00:52;33.10;;;21.60;;
2888;SDS011;1453;42.708;23.282;2023-02-24T15:06:06;40.93;;;22.40;;
2888;SDS011;1453;42.708;23.282;2023-02-24T15:08:59;43.60;;;26.70;;
2888;SDS011;1453;42.708;23.282;2023-02-24T15:11:29;41.33;;;26.40;;
2888;SDS011;1453;42.708;23.282;2023-02-24T15:14:04;42.00;;;23.20;;
2888;SDS011;1453;42.708;23.282;2023-02-24T15:16:45;49.27;;;26.57;;
2888;SDS011;1453;42.708;23.282;2023-02-24T15:19:26;48.53;;;28.00;;
2888;SDS011;1453;42.708;23.282;2023-02-24T15:22:17;45.17;;;27.53;;
2888;SDS011;1453;42.708;23.282;2023-02-24T15:24:53;29.90;;;19.23;;
2888;SDS011;1453;42.708;23.282;2023-02-24T15:27:47;43.70;;;25.23;;
2888;SDS011;1453;42.708;23.282;2023-02-24T15:33:31;34.70;;;22.10;;
2888;SDS011;1453;42.708;23.282;2023-02-24T15:36:26;45.23;;;24.23;;
2888;SDS011;1453;42.708;23.282;2023-02-24T15:38:58;44.00;;;26.93;;
2888;SDS011;1453;42.708;23.282;2023-02-24T15:41:37;38.80;;;22.73;;
2888;SDS011;1453;42.708;23.282;2023-02-24T15:46:56;38.30;;;23.50;;
2888;SDS011;1453;42.708;23.282;2023-02-24T15:49:25;45.77;;;24.07;;
2888;SDS011;1453;42.708;23.282;2023-02-24T15:51:55;51.80;;;27.70;;
2888;SDS011;1453;42.708;23.282;2023-02-24T15:57:00;34.50;;;20.73;;
2888;SDS011;1453;42.708;23.282;2023-02-24T15:59:27;42.37;;;24.53;;
2888;SDS011;1453;42.708;23.282;2023-02-24T16:01:54;44.93;;;26.00;;
2888;SDS011;1453;42.708;23.282;2023-02-24T16:04:20;34.13;;;22.77;;
2888;SDS011;1453;42.708;23.282;2023-02-24T16:06:48;44.30;;;26.23;;
2888;SDS011;1453;42.708;23.282;2023-02-24T16:09:31;44.47;;;27.40;;
2888;SDS011;1453;42.708;23.282;2023-02-24T16:12:02;47.87;;;25.33;;
2888;SDS011;1453;42.708;23.282;2023-02-24T16:14:58;47.80;;;26.53;;
2888;SDS011;1453;42.708;23.282;2023-02-24T16:17:40;44.43;;;26.17;;
2888;SDS011;1453;42.708;23.282;2023-02-24T16:20:10;44.37;;;27.20;;
2888;SDS011;1453;42.708;23.282;2023-02-24T16:22:40;50.57;;;27.83;;
2888;SDS011;1453;42.708;23.282;2023-02-24T16:25:06;48.00;;;28.07;;
2888;SDS011;1453;42.708;23.282;2023-02-24T16:27:32;44.10;;;27.13;;
2888;SDS011;1453;42.708;23.282;2023-02-24T16:29:58;41.80;;;26.87;;
2888;SDS011;1453;42.708;23.282;2023-02-24T16:32:24;56.83;;;32.47;;
2888;SDS011;1453;42.708;23.282;2023-02-24T16:34:53;59.20;;;35.03;;
2888;SDS011;1453;42.708;23.282;2023-02-24T16:37:21;55.30;;;31.73;;
2888;SDS011;1453;42.708;23.282;2023-02-24T16:39:52;43.50;;;25.50;;
2888;SDS011;1453;42.708;23.282;2023-02-24T16:42:19;48.00;;;27.00;;
2888;SDS011;1453;42.708;23.282;2023-02-24T16:44:48;49.63;;;27.30;;
2888;SDS011;1453;42.708;23.282;2023-02-24T16:47:23;63.70;;;41.90;;
2888;SDS011;1453;42.708;23.282;2023-02-24T16:49:49;80.20;;;46.20;;
2888;SDS011;1453;42.708;23.282;2023-02-24T16:52:21;86.30;;;46.40;;
2888;SDS011;1453;42.708;23.282;2023-02-24T16:54:48;70.60;;;44.33;;
2888;SDS011;1453;42.708;23.282;2023-02-24T16:57:14;50.40;;;30.80;;
2888;SDS011;1453;42.708;23.282;2023-02-24T16:59:41;65.97;;;40.63;;
2888;SDS011;1453;42.708;23.282;2023-02-24T17:02:10;100.23;;;55.23;;
2888;SDS011;1453;42.708;23.282;2023-02-24T17:04:47;69.90;;;39.70;;
2888;SDS011;1453;42.708;23.282;2023-02-24T17:07:13;68.07;;;40.23;;
2888;SDS011;1453;42.708;23.282;2023-02-24T17:09:40;46.63;;;29.30;;
2888;SDS011;1453;42.708;23.282;2023-02-24T17:12:06;56.97;;;33.07;;
2888;SDS011;1453;42.708;23.282;2023-02-24T17:14:33;63.10;;;36.33;;
2888;SDS011;1453;42.708;23.282;2023-02-24T17:16:59;56.53;;;32.30;;
2888;SDS011;1453;42.708;23.282;2023-02-24T17:19:24;64.90;;;34.83;;
2888;SDS011;1453;42.708;23.282;2023-02-24T17:21:50;61.83;;;38.00;;
2888;SDS011;1453;42.708;23.282;2023-02-24T17:24:17;61.03;;;36.10;;
2888;SDS011;1453;42.708;23.282;2023-02-24T17:26:44;63.00;;;37.10;;
2888;SDS011;1453;42.708;23.282;2023-02-24T17:29:10;70.70;;;37.80;;
2888;SDS011;1453;42.708;23.282;2023-02-24T17:31:37;60.00;;;36.70;;
2888;SDS011;1453;42.708;23.282;2023-02-24T17:34:04;55.17;;;33.53;;
2888;SDS011;1453;42.708;23.282;2023-02-24T17:36:30;64.97;;;35.73;;
2888;SDS011;1453;42.708;23.282;2023-02-24T17:38:56;63.23;;;35.20;;
2888;SDS011;1453;42.708;23.282;2023-02-24T17:41:25;53.43;;;33.70;;
2888;SDS011;1453;42.708;23.282;2023-02-24T17:43:51;55.07;;;31.47;;
2888;SDS011;1453;42.708;23.282;2023-02-24T17:46:17;55.40;;;32.23;;
2888;SDS011;1453;42.708;23.282;2023-02-24T17:48:44;57.63;;;34.00;;
2888;SDS011;1453;42.708;23.282;2023-02-24T17:51:13;70.57;;;35.03;;
2888;SDS011;1453;42.708;23.282;2023-02-24T17:53:40;53.70;;;30.33;;
2888;SDS011;1453;42.708;23.282;2023-02-24T17:56:07;53.37;;;33.00;;
2888;SDS011;1453;42.708;23.282;2023-02-24T17:58:34;51.17;;;33.23;;
2888;SDS011;1453;42.708;23.282;2023-02-24T18:01:00;60.70;;;32.63;;
2888;SDS011;1453;42.708;23.282;2023-02-24T18:03:28;50.70;;;31.10;;
2888;SDS011;1453;42.708;23.282;2023-02-24T18:06:05;58.53;;;33.10;;